Data for 11/13/2013

Time Sea-Level Adjusted Pressure Absolute Pressure Temperature Relative Humidity Dew Point   
(mb) (inHg) (mb) (inHg) (C) (F) (%) (C) (F)
00:05 1025 30.27 854 25.22 8.1 46.6 42 -3.9 24.9
00:10 1025 30.27 854 25.22 8.3 47 39 -4.7 23.5
00:15 1025 30.27 854 25.22 8.9 48 36 -5.3 22.5
00:20 1025 30.27 854 25.22 9.4 48.8 38 -4.3 24.3
00:25 1025 30.27 854 25.22 9.3 48.8 36 -4.9 23.3
00:30 1025 30.27 854 25.22 9.4 48.9 35 -5.5 22.2
00:35 1025 30.27 854 25.22 9.6 49.2 34 -5.4 22.3
00:40 1025 30.27 854 25.22 9.4 49 39 -3.9 24.9
00:45 1024 30.24 854 25.22 9 48.1 37 -5 23
00:50 1024 30.24 854 25.22 8.9 48 40 -4 24.8
00:55 1024 30.24 854 25.22 8.4 47.1 39 -4.7 23.6
01:00 1024 30.24 854 25.22 8.3 46.9 44 -3.4 25.9
01:05 1024 30.24 854 25.22 7.6 45.7 44 -3.9 25
01:10 1024 30.24 854 25.22 7.8 46.1 45 -3.3 26.1
01:15 1024 30.24 854 25.22 7.3 45.1 46 -3.7 25.3
01:20 1024 30.24 854 25.22 7.4 45.2 45 -3.7 25.3
01:25 1024 30.24 854 25.22 7.5 45.5 46 -3.5 25.7
01:30 1024 30.24 853 25.19 7.4 45.3 44 -4.1 24.5
01:35 1024 30.24 853 25.19 7.4 45.2 44 -4.2 24.5
01:40 1024 30.24 853 25.19 7.2 45 46 -3.5 25.7
01:45 1024 30.24 853 25.19 6.7 44.1 47 -3.8 25.2
01:50 1024 30.24 853 25.19 6.9 44.5 43 -4.8 23.3
01:55 1024 30.24 853 25.19 7.6 45.7 43 -4 24.8
02:00 1024 30.24 853 25.19 7.5 45.4 44 -4.1 24.6
02:05 1024 30.24 853 25.19 7.5 45.5 43 -4.3 24.3
02:10 1024 30.24 853 25.19 7.3 45.2 46 -3.6 25.5
02:15 1024 30.24 853 25.19 7.3 45.1 44 -4.3 24.2
02:20 1024 30.24 853 25.19 7.6 45.7 40 -5 23
02:25 1024 30.24 853 25.19 7.8 46 42 -4.3 24.3
02:30 1024 30.24 853 25.19 7.8 46.1 41 -4.5 23.9
02:35 1024 30.24 853 25.19 8 46.3 41 -4.6 23.7
02:40 1024 30.24 853 25.19 8.2 46.7 41 -4.4 24
02:45 1024 30.24 853 25.19 8.2 46.7 39 -4.8 23.3
02:50 1024 30.24 853 25.19 8.1 46.6 37 -5.7 21.7
02:55 1024 30.24 853 25.19 8.7 47.7 41 -3.9 24.9
03:00 1024 30.24 853 25.19 8.4 47.1 39 -4.9 23.2
03:05 1024 30.24 853 25.19 8.4 47.1 38 -5 23
03:10 1024 30.24 853 25.19 8.6 47.5 37 -5.1 22.8
03:15 1024 30.24 853 25.19 8.7 47.7 37 -5.1 22.8
03:20 1024 30.24 853 25.19 8.6 47.4 39 -4.6 23.7
03:25 1024 30.24 853 25.19 8.2 46.7 41 -4.4 24.2
03:30 1024 30.24 853 25.19 7.9 46.3 42 -4.3 24.3
03:35 1024 30.24 853 25.19 7.6 45.7 42 -4.5 23.9
03:40 1024 30.24 853 25.19 7.6 45.7 42 -4.3 24.2
03:45 1024 30.24 853 25.19 7.6 45.7 42 -4.6 23.8
03:50 1024 30.24 853 25.19 7.8 46.1 40 -4.8 23.4
03:55 1024 30.24 853 25.19 8.3 46.9 40 -4.4 24
04:00 1024 30.24 853 25.19 8 46.5 41 -4.3 24.3
04:05 1024 30.24 853 25.19 8 46.3 41 -4.5 23.9
04:10 1024 30.24 853 25.19 8.3 46.9 40 -4.6 23.7
04:15 1024 30.24 853 25.19 8.4 47.1 38 -5 23
04:20 1024 30.24 853 25.19 8.3 46.9 42 -3.8 25.2
04:25 1024 30.24 853 25.19 7.6 45.7 42 -4.5 23.9
04:30 1024 30.24 853 25.19 8 46.3 39 -5.2 22.6
04:35 1024 30.24 853 25.19 8.3 47 37 -5.6 21.9
04:40 1024 30.24 853 25.19 8.8 47.8 37 -5.2 22.6
04:45 1024 30.24 853 25.19 8.9 48.1 38 -4.6 23.6
04:50 1024 30.24 853 25.19 9 48.1 36 -5.2 22.7
04:55 1024 30.24 853 25.19 8.9 48.1 37 -4.9 23.1
05:00 1024 30.24 853 25.19 8.8 47.8 38 -4.7 23.5
05:05 1024 30.24 853 25.19 8.6 47.4 38 -4.9 23.1
05:10 1024 30.24 853 25.19 8.6 47.5 40 -4.3 24.3
05:15 1024 30.24 853 25.19 8.2 46.8 41 -4.3 24.3
05:20 1024 30.24 853 25.19 8.2 46.7 40 -4.7 23.5
05:25 1024 30.24 853 25.19 8.4 47.1 39 -4.7 23.6
05:30 1024 30.24 853 25.19 8.6 47.4 39 -4.6 23.7
05:35 1024 30.24 853 25.19 8.3 46.9 41 -4.2 24.4
05:40 1024 30.24 853 25.19 8.2 46.8 40 -4.6 23.7
05:45 1024 30.24 853 25.19 8.4 47.2 39 -4.6 23.7
05:50 1024 30.24 853 25.19 8.6 47.5 39 -4.7 23.5
05:55 1024 30.24 853 25.19 8.5 47.4 40 -4.4 24.1
06:00 1024 30.24 853 25.19 8.4 47.2 40 -4.4 24
06:05 1024 30.24 853 25.19 8.5 47.2 41 -3.9 25
06:10 1024 30.24 853 25.19 8.3 47 42 -3.8 25.2
06:15 1024 30.24 853 25.19 8.2 46.8 40 -4.5 24
06:20 1024 30.24 853 25.19 8.5 47.3 40 -4.3 24.2
06:25 1024 30.24 853 25.19 8.2 46.8 40 -4.6 23.7
06:30 1024 30.24 853 25.19 8.5 47.3 39 -4.8 23.3
06:35 1024 30.24 853 25.19 8.8 47.8 38 -4.7 23.5
06:40 1024 30.24 853 25.19 8.8 47.8 38 -4.9 23.3
06:45 1024 30.24 853 25.19 8.9 48 38 -4.8 23.3
06:50 1024 30.24 853 25.19 8.8 47.8 39 -4.5 23.9
06:55 1024 30.24 853 25.19 8.2 46.8 40 -4.5 24
07:00 1024 30.24 853 25.19 8.2 46.7 40 -4.5 23.8
07:05 1024 30.24 853 25.19 8.1 46.6 41 -4.4 24.1
07:10 1024 30.24 853 25.19 7.8 46.1 43 -4 24.7
07:15 1024 30.24 853 25.19 7.6 45.7 43 -4.2 24.4
07:20 1024 30.24 853 25.19 7.8 46 42 -4.2 24.4
07:25 1024 30.24 853 25.19 7.8 46.1 42 -4.3 24.3
07:30 1024 30.24 853 25.19 8 46.3 43 -3.9 25
07:35 1024 30.24 853 25.19 7.9 46.2 43 -3.9 25
07:40 1024 30.24 853 25.19 7.9 46.1 45 -3.4 25.8
07:45 1024 30.24 853 25.19 7.7 45.9 44 -3.8 25.1
07:50 1024 30.24 853 25.19 7.8 46.1 43 -3.9 25.1
07:55 1024 30.24 853 25.19 8 46.3 43 -3.8 25.2
08:00 1024 30.24 853 25.19 8 46.3 44 -3.5 25.6
08:05 1024 30.24 853 25.19 8 46.4 44 -3.4 25.8
08:10 1024 30.24 853 25.19 8 46.4 44 -3.4 25.9
08:15 1024 30.24 853 25.19 7.9 46.3 45 -3.1 26.4
08:20 1024 30.24 853 25.19 7.8 46 46 -3.1 26.4
08:25 1024 30.24 853 25.19 7.6 45.7 47 -3 26.5
08:30 1024 30.24 853 25.19 7.5 45.6 47 -3 26.6
08:35 1024 30.24 853 25.19 7.5 45.6 47 -3.1 26.5
08:40 1024 30.24 853 25.19 7.6 45.6 47 -3.1 26.4
08:45 1024 30.24 853 25.19 7.5 45.6 48 -2.8 26.9
08:50 1024 30.24 853 25.19 7.6 45.6 48 -2.7 27.1
08:55 1024 30.24 853 25.19 7.6 45.7 48 -2.6 27.3
09:00 1024 30.24 853 25.19 7.6 45.7 48 -2.6 27.3
09:05 1024 30.24 853 25.19 7.6 45.7 48 -2.6 27.3
09:10 1024 30.24 853 25.19 7.6 45.6 49 -2.6 27.4
09:15 1024 30.24 853 25.19 7.5 45.6 49 -2.6 27.3
09:20 1024 30.24 853 25.19 7.6 45.6 48 -2.7 27.1
09:25 1024 30.24 853 25.19 7.4 45.3 50 -2.3 27.9
09:30 1024 30.24 853 25.19 7.3 45.1 50 -2.5 27.6
09:35 1024 30.24 853 25.19 7.5 45.4 49 -2.6 27.4
09:40 1024 30.24 853 25.19 7.8 46.1 48 -2.5 27.5
09:45 1024 30.24 853 25.19 8 46.3 48 -2.4 27.6
09:50 1024 30.24 853 25.19 8 46.3 49 -2.1 28.3
09:55 1024 30.24 853 25.19 8 46.4 49 -2.1 28.3
10:00 1024 30.24 853 25.19 8.1 46.5 49 -2 28.3
10:05 1024 30.24 853 25.19 8 46.4 50 -1.8 28.7
10:10 1024 30.24 853 25.19 8.1 46.6 50 -1.8 28.8
10:15 1024 30.24 853 25.19 8.2 46.8 50 -1.7 29
10:20 1024 30.24 853 25.19 8.4 47.1 48 -1.8 28.8
10:25 1024 30.24 853 25.19 8.6 47.4 47 -2 28.4
10:30 1024 30.24 853 25.19 8.8 47.8 48 -1.7 28.9
10:35 1024 30.24 853 25.19 9.2 48.5 46 -1.7 29
10:40 1024 30.24 853 25.19 9.5 49.2 46 -1.5 29.4
10:45 1024 30.24 853 25.19 9.7 49.5 46 -1.3 29.7
10:50 1024 30.24 853 25.19 9.7 49.4 46 -1.3 29.6
10:55 1024 30.24 853 25.19 9.7 49.4 46 -1.2 29.8
11:00 1024 30.24 853 25.19 9.7 49.5 46 -1.2 29.8
11:05 1024 30.24 853 25.19 9.8 49.7 46 -1.2 29.9
11:10 1024 30.24 853 25.19 10 50 46 -1.1 30
11:15 1024 30.24 853 25.19 10.1 50.2 46 -1.1 30.1
11:20 1024 30.24 853 25.19 10.2 50.4 45 -1.1 29.9
11:25 1024 30.24 853 25.19 10.2 50.3 45 -1.1 30
11:30 1023 30.21 853 25.19 10.2 50.4 46 -0.9 30.3
11:35 1023 30.21 853 25.19 10.2 50.3 45 -1.1 30
11:40 1023 30.21 853 25.19 10.2 50.3 46 -0.9 30.3
11:45 1023 30.21 852 25.16 10.1 50.1 46 -1 30.1
11:50 1023 30.21 852 25.16 9.9 49.9 46 -1 30.2
11:55 1023 30.21 852 25.16 9.9 49.8 47 -0.9 30.4
12:00 1023 30.21 852 25.16 9.9 49.8 47 -0.7 30.7
12:05 1023 30.21 852 25.16 9.8 49.7 48 -0.6 30.8
12:10 1023 30.21 852 25.16 9.6 49.4 48 -0.7 30.7
12:15 1023 30.21 852 25.16 9.6 49.3 49 -0.6 30.9
12:20 1023 30.21 852 25.16 9.6 49.4 49 -0.5 31
12:25 1023 30.21 852 25.16 9.6 49.3 49 -0.5 31
12:30 1023 30.21 852 25.16 9.5 49.2 49 -0.5 31.1
12:35 1023 30.21 852 25.16 9.6 49.3 49 -0.6 30.9
12:40 1023 30.21 852 25.16 9.4 49 50 -0.4 31.3
12:45 1023 30.21 852 25.16 9.3 48.8 51 -0.4 31.3
12:50 1023 30.21 852 25.16 9.4 48.9 51 -0.3 31.5
12:55 1023 30.21 852 25.16 9.5 49.1 50 -0.3 31.4
13:00 1023 30.21 852 25.16 9.7 49.4 49 -0.4 31.3
13:05 1023 30.21 852 25.16 9.7 49.4 50 -0.2 31.6
13:10 1023 30.21 852 25.16 9.7 49.4 50 -0.1 31.8
13:15 1022 30.18 852 25.16 9.4 49 51 -0.3 31.5
13:20 1022 30.18 852 25.16 9.2 48.5 50 -0.6 30.9
13:25 1022 30.18 852 25.16 9.6 49.2 49 -0.6 31
13:30 1022 30.18 852 25.16 9.9 49.8 48 -0.6 30.9
13:35 1022 30.18 851 25.13 10.8 51.4 45 -0.7 30.8
13:40 1022 30.18 851 25.13 11.5 52.7 43 -0.7 30.7
13:45 1022 30.18 851 25.13 12 53.5 42 -0.3 31.4
13:50 1022 30.18 851 25.13 12 53.6 43 -0.2 31.7
13:55 1022 30.18 851 25.13 12.2 53.9 42 -0.3 31.5
14:00 1022 30.18 851 25.13 12.2 53.9 40 -0.8 30.5
14:05 1022 30.18 851 25.13 12.7 54.8 40 -0.7 30.7
14:10 1022 30.18 851 25.13 12.7 54.9 38 -1 30.2
14:15 1022 30.18 851 25.13 12.8 55 39 -0.6 30.9
14:20 1022 30.18 851 25.13 12.7 54.9 39 -0.9 30.4
14:25 1021 30.15 851 25.13 12.8 55 38 -1.2 29.9
14:30 1021 30.15 850 25.1 12.8 55 38 -1.3 29.7
14:35 1021 30.15 850 25.1 12.7 54.8 38 -1.4 29.6
14:40 1021 30.15 850 25.1 12.7 54.8 37 -1.5 29.4
14:45 1021 30.15 850 25.1 12.6 54.7 37 -1.7 28.9
14:50 1021 30.15 850 25.1 12.6 54.7 36 -2.1 28.2
14:55 1021 30.15 850 25.1 12.7 54.9 36 -2 28.3
15:00 1021 30.15 850 25.1 12.6 54.7 34 -2.9 26.7
15:05 1021 30.15 850 25.1 12.7 54.8 34 -2.9 26.9
15:10 1021 30.15 850 25.1 12.9 55.2 33 -2.9 26.7
15:15 1021 30.15 850 25.1 13.1 55.6 32 -3.1 26.4
15:20 1021 30.15 850 25.1 13.2 55.7 30 -4.1 24.6
15:25 1021 30.15 850 25.1 13.2 55.7 29 -4.4 24
15:30 1021 30.15 850 25.1 13.3 55.9 27 -5.3 22.4
15:35 1021 30.15 850 25.1 13.3 56 28 -4.6 23.7
15:40 1021 30.15 850 25.1 13.3 55.9 27 -5.3 22.5
15:45 1021 30.15 850 25.1 13.3 55.9 28 -4.9 23.3
15:50 1021 30.15 850 25.1 13.3 55.9 29 -4.5 23.9
15:55 1021 30.15 850 25.1 12.8 55.1 29 -4.7 23.6
16:00 1021 30.15 850 25.1 12.8 55 29 -4.8 23.4
16:05 1020 30.12 850 25.1 12.6 54.7 29 -4.9 23.3
16:10 1020 30.12 850 25.1 12.5 54.5 29 -5 23
16:15 1020 30.12 850 25.1 12.4 54.2 29 -5.1 22.8
16:20 1020 30.12 850 25.1 12.4 54.3 29 -5.2 22.6
16:25 1020 30.12 850 25.1 12 53.6 30 -5 23
16:30 1020 30.12 850 25.1 11.8 53.3 29 -5.7 21.8
16:35 1020 30.12 850 25.1 12 53.7 28 -6 21.3
16:40 1021 30.15 850 25.1 11.9 53.5 28 -6.1 21.1
16:45 1020 30.12 850 25.1 11.9 53.5 28 -6.2 20.9
16:50 1020 30.12 850 25.1 11.6 52.9 28 -6.1 21.1
16:55 1020 30.12 850 25.1 11.3 52.3 29 -5.9 21.4
17:00 1020 30.12 850 25.1 10.9 51.7 30 -5.8 21.5
17:05 1021 30.15 850 25.1 10.7 51.3 31 -5.7 21.8
17:10 1020 30.12 850 25.1 10.5 50.9 31 -5.7 21.7
17:15 1021 30.15 850 25.1 10.4 50.7 32 -5.5 22.1
17:20 1021 30.15 850 25.1 10.3 50.5 33 -5.5 22.2
17:25 1021 30.15 850 25.1 10.4 50.7 32 -5.5 22.1
17:30 1021 30.15 850 25.1 10.7 51.2 32 -5.4 22.3
17:35 1021 30.15 850 25.1 10.7 51.3 33 -5 23
17:40 1021 30.15 850 25.1 10.7 51.2 33 -4.8 23.4
17:45 1021 30.15 850 25.1 10.5 50.9 34 -4.6 23.8
17:50 1021 30.15 850 25.1 10.2 50.3 36 -4.3 24.3
17:55 1021 30.15 850 25.1 9.8 49.7 36 -4.4 24.1
18:00 1021 30.15 850 25.1 9.6 49.3 36 -4.6 23.8
18:05 1021 30.15 850 25.1 9.3 48.8 37 -4.6 23.8
18:10 1021 30.15 850 25.1 9.1 48.3 38 -4.6 23.6
18:15 1021 30.15 851 25.13 8.8 47.9 38 -4.7 23.6
18:20 1021 30.15 851 25.13 8.6 47.5 38 -4.7 23.5
18:25 1021 30.15 851 25.13 8.4 47.1 39 -4.8 23.4
18:30 1022 30.18 851 25.13 8.2 46.8 40 -4.7 23.5
18:35 1022 30.18 851 25.13 8 46.4 41 -4.5 24
18:40 1022 30.18 851 25.13 7.8 46 42 -4.4 24.2
18:45 1022 30.18 851 25.13 7.5 45.5 44 -3.9 25
18:50 1022 30.18 851 25.13 7.2 45 46 -3.7 25.3
18:55 1022 30.18 851 25.13 7 44.6 46 -3.7 25.4
19:00 1022 30.18 852 25.16 6.8 44.3 47 -3.7 25.4
19:05 1023 30.21 852 25.16 6.7 44.1 48 -3.7 25.4
19:10 1023 30.21 852 25.16 6.6 43.8 48 -3.7 25.4
19:15 1023 30.21 852 25.16 6.4 43.6 48 -3.8 25.2
19:20 1023 30.21 852 25.16 6.3 43.4 48 -3.9 25
19:25 1023 30.21 852 25.16 6.2 43.1 48 -3.9 24.9
19:30 1023 30.21 852 25.16 6 42.8 48 -4 24.7
19:35 1023 30.21 852 25.16 5.8 42.5 49 -4.1 24.5
19:40 1023 30.21 852 25.16 5.6 42.1 49 -4.2 24.4
19:45 1023 30.21 852 25.16 5.5 41.8 50 -4.1 24.6
19:50 1023 30.21 852 25.16 5.3 41.6 50 -4.2 24.5
19:55 1023 30.21 852 25.16 5.2 41.3 50 -4.3 24.3
20:00 1023 30.21 853 25.19 5.1 41.2 50 -4.4 24.1
20:05 1023 30.21 852 25.16 5.1 41.2 51 -4.3 24.2
20:10 1023 30.21 852 25.16 4.9 40.7 52 -4.3 24.3
20:15 1023 30.21 853 25.19 4.8 40.6 52 -4.1 24.6
20:20 1024 30.24 853 25.19 4.8 40.6 53 -4 24.8
20:25 1024 30.24 853 25.19 4.4 40 54 -3.9 24.9
20:30 1024 30.24 853 25.19 4.1 39.4 55 -4.1 24.7
20:35 1024 30.24 853 25.19 4 39.2 55 -4.1 24.6
20:40 1024 30.24 853 25.19 4 39.3 55 -4.3 24.3
20:45 1024 30.24 853 25.19 4 39.2 55 -4.2 24.4
20:50 1024 30.24 853 25.19 4 39.1 54 -4.5 23.9
20:55 1024 30.24 853 25.19 4.2 39.5 53 -4.5 24
21:00 1024 30.24 853 25.19 4.2 39.6 53 -4.5 24
21:05 1024 30.24 853 25.19 4.2 39.6 53 -4.6 23.8
21:10 1024 30.24 853 25.19 4.2 39.6 52 -4.6 23.6
21:15 1024 30.24 853 25.19 4.2 39.6 52 -4.8 23.3
21:20 1024 30.24 853 25.19 4.3 39.8 51 -4.8 23.3
21:25 1024 30.24 853 25.19 4.2 39.5 52 -4.7 23.5
21:30 1024 30.24 853 25.19 4 39.2 54 -4.6 23.8
21:35 1024 30.24 853 25.19 3.7 38.6 55 -4.5 23.8
21:40 1024 30.24 853 25.19 3.4 38.1 56 -4.5 23.9
21:45 1024 30.24 853 25.19 3.1 37.6 57 -4.7 23.6
21:50 1023 30.21 853 25.19 3.2 37.7 55 -4.9 23.2
21:55 1024 30.24 853 25.19 3.3 37.9 55 -4.8 23.3
22:00 1024 30.24 853 25.19 3.2 37.7 56 -4.7 23.6
22:05 1024 30.24 853 25.19 3.1 37.6 56 -4.7 23.5
22:10 1024 30.24 853 25.19 3.1 37.6 56 -4.9 23.1
22:15 1024 30.24 853 25.19 3.2 37.7 55 -5.1 22.8
22:20 1024 30.24 853 25.19 3.4 38.1 53 -5.3 22.4
22:25 1024 30.24 853 25.19 3.5 38.3 54 -5.1 22.9
22:30 1023 30.21 853 25.19 3.2 37.8 56 -4.8 23.4
22:35 1023 30.21 853 25.19 2.9 37.3 55 -5.2 22.7
22:40 1023 30.21 853 25.19 3.2 37.8 54 -5.3 22.5
22:45 1023 30.21 852 25.16 3.3 37.9 54 -5.1 22.7
22:50 1023 30.21 853 25.19 3.1 37.6 55 -5.1 22.8
22:55 1023 30.21 853 25.19 3 37.5 54 -5.3 22.5
23:00 1024 30.24 853 25.19 3.2 37.7 53 -5.5 22.2
23:05 1024 30.24 853 25.19 3.2 37.8 53 -5.4 22.3
23:10 1024 30.24 853 25.19 2.9 37.3 55 -5.3 22.5
23:15 1023 30.21 853 25.19 2.3 36.1 57 -5.3 22.4
23:20 1023 30.21 853 25.19 2.1 35.8 55 -6 21.2
23:25 1023 30.21 852 25.16 2.5 36.6 54 -5.9 21.4
23:30 1023 30.21 852 25.16 2.7 36.8 54 -5.8 21.6
23:35 1023 30.21 853 25.19 2.5 36.6 54 -5.9 21.5
23:40 1023 30.21 853 25.19 2.2 35.9 56 -5.6 21.9
23:45 1023 30.21 853 25.19 1.8 35.2 57 -5.9 21.4
23:50 1023 30.21 853 25.19 1.8 35.2 57 -5.9 21.4
23:55 1023 30.21 853 25.19 2 35.6 54 -6.3 20.6
24:00 1023 30.21 852 25.16 2.4 36.3 53 -6.3 20.7